Aérodrome :
LOGIN :

S'inscrire | Disclaimer

   EN    FR    IT 

 










Légende :    VFR   VFR Marginal   IFR   IFR Intensif   IFR Très Intensif
Visi : 
Plafond : 
>= 8 km
>= 3000ft
5 à 8 km
1000 à 3000 ft
1500m à 5 km
500 à 1000 ft
800 à 1500m
200 à 500 ft
< 800m
< 200 ft
Symboles :   Orages  Brouillard  Fortes neiges  Fortes précipitations  Vent > 20 kt
SIGMETs :   Divers  Orages  Givrage  Turbulence  Onde Orograph.  Cendres Volcan.






- Altitude de l'aérodrome : 162 ft
- Code IATA : BOD


LFBD - Bordeaux / Merignac

DERNIER METAR :
  • 090230Z AUTO 26017KT 9999 FEW025/// BKN045/// BKN056/// ///CB 11/09 Q1019 TEMPO 27020G35KT 1500 -TSRA

METARs EXPIRÉS :
  • 090200Z AUTO 27022G33KT 9999 4000 BKN031/// BKN041/// BKN048/// ///CB 12/08 Q1019 TEMPO 1500 -TSRA
  • 090130Z AUTO 25018KT 9999 SCT032/// BKN039/// BKN046/// ///CB 12/08 Q1019
  • 090100Z AUTO 25017KT 9999 FEW039/// SCT050/// BKN060/// ///TCU 12/08 Q1019 TEMPO 27020G35KT 1500 -TSRA BKN025CB
  • 090030Z AUTO 26016KT 9999 FEW027/// SCT040/// BKN072/// ///TCU 12/08 Q1020 TEMPO 27020G35KT 1500 -TSRA BKN025CB
  • 090000Z AUTO 26018KT 9999 FEW033 BKN064 OVC074 12/08 Q1020 TEMPO 27020G35KT 1500 -TSRA BKN025CB

TAF TAF LFBD
Valide du 09 à 00h jusqu'au 10 à 06h UTC


082300Z 0900/1006 27015G25KT 9999 BKN030 TX12/0915Z TN05/1006Z
TEMPO 0900/0914 27020G35KT 3500 SHRA FEW025CB BKN030TCU
PROB30
TEMPO 0901/0908 1500 -TSRA BKN025CB
BECMG 0916/0918 30008KT
BECMG 0918/0920 CAVOK
BECMG 1000/1002 VRB02KT
ATIS : +33 5 57 92 81 04



MET'MAP, la Météo Aéronautique d'un coup d'oeil ! - Copyright ORBIFLY Décembre 2007 - Disclaimer

ORBIFLY MET'MAP TEAM :

Programmation & Développement : Alexandra Zaïnal
Sur une idée originale de : Baudouin d'Aumeries
Assistance à la programmation : Marc-Olivier Méhu
Soutien technique & logistique : Manuel Goepfert

Contact : metmap@orbifly.com




SOURCES & CREDITS :

   NOAA